createdAt,value
2018-12-09T00:00:03.531Z,9.30
2018-12-09T00:02:31.714Z,9.30
2018-12-09T00:04:59.867Z,9.40
2018-12-09T00:07:28.243Z,9.40
2018-12-09T00:09:56.476Z,9.40
2018-12-09T00:12:24.707Z,9.50
2018-12-09T00:14:52.875Z,9.60
2018-12-09T00:17:21.100Z,9.70
2018-12-09T00:19:49.323Z,9.70
2018-12-09T00:22:17.460Z,9.70
2018-12-09T00:24:45.632Z,9.70
2018-12-09T00:27:13.962Z,9.60
2018-12-09T00:29:42.188Z,9.60
2018-12-09T00:32:10.339Z,9.60
2018-12-09T00:34:38.566Z,9.60
2018-12-09T00:37:06.772Z,9.70
2018-12-09T00:39:34.940Z,9.60
2018-12-09T00:42:03.076Z,9.70
2018-12-09T00:44:31.276Z,9.70
2018-12-09T00:46:59.407Z,9.70
2018-12-09T00:49:27.563Z,9.70
2018-12-09T00:51:55.779Z,9.60
2018-12-09T00:54:24.003Z,9.50
2018-12-09T00:56:52.161Z,9.50
2018-12-09T00:59:20.372Z,9.50
2018-12-09T01:01:48.591Z,9.40
2018-12-09T01:04:17.343Z,9.40
2018-12-09T01:06:45.863Z,9.40
2018-12-09T01:09:14.014Z,9.30
2018-12-09T01:11:42.357Z,9.30
2018-12-09T01:21:34.428Z,9.40
2018-12-09T01:24:02.636Z,9.40
2018-12-09T01:26:30.959Z,9.50
2018-12-09T01:28:59.115Z,9.50
2018-12-09T01:31:28.168Z,9.40
2018-12-09T01:33:56.392Z,9.50
2018-12-09T01:36:24.653Z,9.50
2018-12-09T01:38:53.011Z,9.50
2018-12-09T01:41:21.160Z,9.40
2018-12-09T01:43:49.331Z,9.40
2018-12-09T01:46:17.574Z,9.30
2018-12-09T01:48:46.061Z,9.20
2018-12-09T01:51:14.261Z,9.00
2018-12-09T01:54:14.399Z,8.90
2018-12-09T01:56:42.755Z,8.70
2018-12-09T01:59:10.980Z,8.60
2018-12-09T02:01:39.501Z,8.50
2018-12-09T02:04:07.882Z,8.30
2018-12-09T02:06:36.266Z,8.30
2018-12-09T02:09:06.771Z,8.20
2018-12-09T02:11:35.064Z,8.10
2018-12-09T02:14:03.456Z,8.00
2018-12-09T02:16:31.968Z,7.90
2018-12-09T02:19:15.815Z,7.80
2018-12-09T02:21:44.302Z,7.80
2018-12-09T02:24:12.807Z,7.70
2018-12-09T02:26:41.052Z,7.70
2018-12-09T02:29:09.359Z,7.60
2018-12-09T02:31:37.755Z,7.60
2018-12-09T02:34:06.022Z,7.60
2018-12-09T02:36:34.728Z,7.50
2018-12-09T02:39:03.513Z,7.50
2018-12-09T02:41:31.807Z,7.40
2018-12-09T02:44:00.044Z,7.30
2018-12-09T02:46:28.525Z,7.30
2018-12-09T02:48:56.807Z,7.20
2018-12-09T02:51:25.132Z,7.00
2018-12-09T02:53:53.407Z,7.00
2018-12-09T02:56:21.632Z,6.90
2018-12-09T02:58:50.219Z,6.90
2018-12-09T03:01:18.440Z,6.90
2018-12-09T03:03:46.705Z,6.90
2018-12-09T03:06:15.061Z,6.90
2018-12-09T03:08:43.392Z,6.90
2018-12-09T03:11:11.540Z,6.90
2018-12-09T03:13:39.778Z,6.90
2018-12-09T03:16:08.009Z,6.90
2018-12-09T03:18:36.277Z,7.00
2018-12-09T03:21:04.512Z,6.90
2018-12-09T03:23:32.667Z,7.00
2018-12-09T03:26:00.811Z,7.00
2018-12-09T03:28:29.468Z,7.00
2018-12-09T03:30:57.767Z,7.00
2018-12-09T03:33:26.154Z,7.10
2018-12-09T03:35:54.399Z,7.10
2018-12-09T03:38:23.216Z,7.10
2018-12-09T03:40:51.525Z,7.10
2018-12-09T03:43:19.671Z,7.10
2018-12-09T03:45:47.856Z,7.10
2018-12-09T03:48:16.110Z,7.10
2018-12-09T03:50:44.359Z,7.10
2018-12-09T03:53:12.585Z,7.20
2018-12-09T03:55:40.730Z,7.20
2018-12-09T03:58:08.967Z,7.20
2018-12-09T04:00:37.243Z,7.20
2018-12-09T04:03:05.646Z,7.20
2018-12-09T04:05:34.015Z,7.20
2018-12-09T04:08:02.306Z,7.20
2018-12-09T04:10:31.036Z,7.20
2018-12-09T04:12:59.307Z,7.20
2018-12-09T04:15:27.513Z,7.20
2018-12-09T04:17:55.735Z,7.20
2018-12-09T04:20:24.276Z,7.30
2018-12-09T04:22:52.512Z,7.30
2018-12-09T04:25:20.739Z,7.40
2018-12-09T04:27:48.892Z,7.40
2018-12-09T04:30:17.064Z,7.40
2018-12-09T04:32:45.300Z,7.50
2018-12-09T04:35:13.678Z,7.50
2018-12-09T04:37:41.843Z,7.50
2018-12-09T04:40:10.141Z,7.40
2018-12-09T04:42:38.281Z,7.40
2018-12-09T04:45:06.845Z,7.40
2018-12-09T04:47:35.103Z,7.30
2018-12-09T04:50:03.553Z,7.30
2018-12-09T04:52:32.412Z,7.30
2018-12-09T04:55:00.987Z,7.20
2018-12-09T04:57:29.244Z,7.20
2018-12-09T05:00:09.210Z,7.20
2018-12-09T05:02:37.468Z,7.10
2018-12-09T05:05:06.145Z,7.10
2018-12-09T05:07:34.274Z,7.10
2018-12-09T05:10:02.724Z,7.00
2018-12-09T05:12:31.095Z,6.90
2018-12-09T05:14:59.365Z,6.90
2018-12-09T05:17:27.701Z,6.80
2018-12-09T05:19:55.971Z,6.80
2018-12-09T05:22:24.254Z,6.80
2018-12-09T05:24:52.408Z,6.80
2018-12-09T05:27:20.700Z,6.80
2018-12-09T05:29:48.961Z,6.80
2018-12-09T05:32:17.343Z,6.80
2018-12-09T05:34:45.495Z,6.80
2018-12-09T05:37:13.655Z,6.90
2018-12-09T05:39:41.911Z,6.90
2018-12-09T05:42:10.304Z,6.90
2018-12-09T05:44:38.467Z,7.00
2018-12-09T05:47:06.689Z,7.00
2018-12-09T05:49:34.961Z,7.00
2018-12-09T05:52:03.108Z,7.00
2018-12-09T05:54:31.290Z,7.00
2018-12-09T05:56:59.487Z,7.00
2018-12-09T05:59:27.718Z,7.10
2018-12-09T06:02:06.572Z,7.10
2018-12-09T06:04:34.847Z,7.10
2018-12-09T06:07:03.012Z,7.10
2018-12-09T06:09:31.159Z,7.10
2018-12-09T06:11:59.347Z,7.10
2018-12-09T06:14:27.612Z,7.10
2018-12-09T06:16:55.934Z,7.10
2018-12-09T06:19:24.083Z,7.10
2018-12-09T06:21:52.242Z,7.10
2018-12-09T06:24:20.390Z,7.10
2018-12-09T06:26:48.715Z,7.10
2018-12-09T06:29:16.888Z,7.00
2018-12-09T06:31:45.128Z,7.00
2018-12-09T06:34:13.455Z,7.10
2018-12-09T06:36:41.602Z,7.10
2018-12-09T06:39:09.829Z,7.10
2018-12-09T06:41:38.063Z,7.10
2018-12-09T06:44:06.221Z,7.10
2018-12-09T06:46:35.047Z,7.10
2018-12-09T06:49:03.280Z,7.00
2018-12-09T06:51:31.975Z,7.00
2018-12-09T06:54:00.220Z,7.00
2018-12-09T06:56:28.575Z,7.00
2018-12-09T06:58:56.791Z,7.10
2018-12-09T07:01:25.298Z,7.10
2018-12-09T07:03:53.555Z,7.10
2018-12-09T07:06:21.724Z,7.10
2018-12-09T07:08:49.866Z,7.10
2018-12-09T07:11:18.305Z,7.00
2018-12-09T07:13:46.462Z,7.00
2018-12-09T07:16:14.775Z,7.00
2018-12-09T07:21:17.470Z,7.00
2018-12-09T07:23:45.703Z,6.90
2018-12-09T07:26:13.864Z,7.00
2018-12-09T07:28:42.413Z,6.90
2018-12-09T07:31:10.659Z,6.90
2018-12-09T07:33:38.910Z,6.90
2018-12-09T07:36:07.039Z,6.90
2018-12-09T07:38:35.342Z,6.90
2018-12-09T07:41:03.871Z,6.90
2018-12-09T07:43:32.026Z,6.90
2018-12-09T07:46:00.269Z,6.90
2018-12-09T07:48:28.592Z,6.90
2018-12-09T07:50:56.867Z,6.90
2018-12-09T07:53:25.421Z,6.90
2018-12-09T07:55:53.715Z,7.00
2018-12-09T07:58:21.885Z,7.00
2018-12-09T08:00:50.115Z,7.00
2018-12-09T08:03:18.369Z,6.90
2018-12-09T08:05:46.520Z,7.00
2018-12-09T08:08:14.712Z,7.00
2018-12-09T08:10:42.876Z,7.10
2018-12-09T08:13:11.051Z,7.10
2018-12-09T08:15:39.212Z,7.10
2018-12-09T08:18:07.486Z,7.20
2018-12-09T08:20:35.638Z,7.30
2018-12-09T08:23:03.909Z,7.20
2018-12-09T08:25:32.058Z,7.30
2018-12-09T08:28:00.299Z,7.30
2018-12-09T08:30:29.024Z,7.40
2018-12-09T08:32:57.262Z,7.40
2018-12-09T08:35:25.419Z,7.40
2018-12-09T08:37:53.551Z,7.50
2018-12-09T08:40:21.822Z,7.50
2018-12-09T08:42:49.971Z,7.50
2018-12-09T08:45:18.192Z,7.60
2018-12-09T08:47:46.340Z,7.60
2018-12-09T08:50:14.483Z,7.60
2018-12-09T08:52:42.648Z,7.60
2018-12-09T08:55:10.788Z,7.70
2018-12-09T08:57:38.972Z,7.70
2018-12-09T09:00:08.815Z,7.70
2018-12-09T09:02:36.993Z,7.60
2018-12-09T09:05:05.288Z,7.60
2018-12-09T09:07:33.483Z,7.60
2018-12-09T09:10:01.788Z,7.60
2018-12-09T09:12:30.036Z,7.60
2018-12-09T09:14:58.187Z,7.50
2018-12-09T09:17:26.351Z,7.60
2018-12-09T09:19:54.500Z,7.60
2018-12-09T09:22:22.644Z,7.60
2018-12-09T09:24:50.780Z,7.60
2018-12-09T09:27:18.989Z,7.60
2018-12-09T09:29:47.220Z,7.60
2018-12-09T09:32:15.391Z,7.50
2018-12-09T09:34:43.568Z,7.50
2018-12-09T09:37:11.733Z,7.40
2018-12-09T09:39:39.999Z,7.40
2018-12-09T09:42:08.192Z,7.30
2018-12-09T09:44:36.372Z,7.30
2018-12-09T09:47:04.699Z,7.30
2018-12-09T09:49:32.871Z,7.30
2018-12-09T09:52:01.032Z,7.20
2018-12-09T09:54:29.223Z,7.20
2018-12-09T09:56:57.371Z,7.20
2018-12-09T09:59:25.626Z,7.30
2018-12-09T10:01:53.770Z,7.20
2018-12-09T10:04:21.919Z,7.20
2018-12-09T10:06:50.160Z,7.30
2018-12-09T10:09:18.343Z,7.30
2018-12-09T10:11:46.539Z,7.30
2018-12-09T10:14:14.780Z,7.20
2018-12-09T10:16:43.505Z,7.20
2018-12-09T10:19:11.676Z,7.20
2018-12-09T10:21:39.881Z,7.20
2018-12-09T10:24:08.234Z,7.20
2018-12-09T10:26:36.718Z,7.20
2018-12-09T10:29:05.139Z,7.20
2018-12-09T10:31:35.403Z,7.20
2018-12-09T10:34:03.660Z,7.10
2018-12-09T10:36:31.848Z,7.10
2018-12-09T10:38:59.992Z,7.00
2018-12-09T10:41:28.172Z,6.90
2018-12-09T10:43:56.323Z,6.90
2018-12-09T10:46:24.487Z,6.90
2018-12-09T10:48:52.657Z,6.90
2018-12-09T10:51:20.816Z,6.80
2018-12-09T10:53:49.055Z,6.80
2018-12-09T10:56:18.363Z,6.70
2018-12-09T10:58:46.533Z,6.70
2018-12-09T11:01:20.095Z,6.70
2018-12-09T11:03:48.748Z,6.70
2018-12-09T11:06:17.069Z,6.70
2018-12-09T11:08:45.499Z,6.60
2018-12-09T11:11:13.712Z,6.70
2018-12-09T11:13:41.967Z,6.60
2018-12-09T11:16:10.210Z,6.60
2018-12-09T11:18:38.510Z,6.60
2018-12-09T11:21:06.655Z,6.60
2018-12-09T11:23:34.800Z,6.60
2018-12-09T11:26:02.972Z,6.50
2018-12-09T11:28:31.139Z,6.50
2018-12-09T11:30:59.367Z,6.60
2018-12-09T11:33:27.522Z,6.50
2018-12-09T11:35:55.727Z,6.50
2018-12-09T11:38:24.024Z,6.60
2018-12-09T11:40:52.184Z,6.60
2018-12-09T11:43:20.339Z,6.60
2018-12-09T11:45:49.383Z,6.60
2018-12-09T11:48:18.003Z,6.70
2018-12-09T11:50:46.184Z,6.70
2018-12-09T11:53:14.355Z,6.70
2018-12-09T11:55:42.551Z,6.70
2018-12-09T11:58:10.767Z,6.80
2018-12-09T12:00:38.899Z,6.80
2018-12-09T12:03:07.109Z,6.80
2018-12-09T12:05:35.327Z,6.90
2018-12-09T12:08:03.536Z,7.00
2018-12-09T12:10:31.688Z,7.00
2018-12-09T12:12:59.843Z,7.10
2018-12-09T12:15:28.055Z,7.10
2018-12-09T12:17:56.220Z,7.10
2018-12-09T12:20:24.463Z,7.10
2018-12-09T12:22:52.628Z,7.10
2018-12-09T12:25:20.944Z,7.10
2018-12-09T12:27:49.151Z,7.10
2018-12-09T12:30:17.395Z,7.10
2018-12-09T12:32:45.651Z,7.20
2018-12-09T12:35:13.795Z,7.10
2018-12-09T12:37:42.065Z,7.10
2018-12-09T12:40:10.309Z,7.10
2018-12-09T12:42:38.544Z,7.20
2018-12-09T12:45:06.863Z,7.20
2018-12-09T12:47:35.451Z,7.10
2018-12-09T12:50:04.292Z,7.20
2018-12-09T12:52:32.506Z,7.10
2018-12-09T12:55:00.668Z,7.20
2018-12-09T12:57:28.924Z,7.10
2018-12-09T12:59:57.100Z,7.10
2018-12-09T13:02:25.324Z,7.10
2018-12-09T13:04:53.525Z,7.00
2018-12-09T13:07:21.679Z,7.00
2018-12-09T13:09:49.838Z,7.00
2018-12-09T13:12:17.996Z,7.00
2018-12-09T13:14:46.191Z,6.90
2018-12-09T13:17:14.370Z,6.90
2018-12-09T13:19:42.617Z,6.90
2018-12-09T13:22:10.899Z,6.90
2018-12-09T13:24:39.082Z,6.80
2018-12-09T13:27:07.237Z,6.80
2018-12-09T13:29:35.420Z,6.70
2018-12-09T13:32:03.767Z,6.80
2018-12-09T13:34:31.996Z,6.80
2018-12-09T13:37:00.180Z,6.70
2018-12-09T13:39:28.341Z,6.70
2018-12-09T13:41:56.541Z,6.80
2018-12-09T13:44:24.703Z,6.80
2018-12-09T13:46:52.968Z,6.70
2018-12-09T13:49:21.208Z,6.70
2018-12-09T13:51:49.492Z,6.70
2018-12-09T13:54:17.656Z,6.70
2018-12-09T13:56:45.974Z,6.70
2018-12-09T13:59:14.153Z,6.70
2018-12-09T14:01:42.400Z,6.70
2018-12-09T14:04:10.693Z,6.60
2018-12-09T14:06:38.847Z,6.60
2018-12-09T14:09:07.970Z,6.70
2018-12-09T14:11:36.204Z,6.70
2018-12-09T14:14:04.547Z,6.70
2018-12-09T14:16:32.813Z,6.70
2018-12-09T14:19:00.977Z,6.70
2018-12-09T14:21:29.231Z,6.70
2018-12-09T14:23:57.669Z,6.70
2018-12-09T14:26:25.808Z,6.70
2018-12-09T14:28:56.165Z,6.70
2018-12-09T14:31:25.052Z,6.70
2018-12-09T14:33:53.360Z,6.70
2018-12-09T14:36:21.539Z,6.70
2018-12-09T14:38:49.900Z,6.70
2018-12-09T14:41:18.097Z,6.60
2018-12-09T14:43:46.256Z,6.60
2018-12-09T14:46:14.545Z,6.50
2018-12-09T14:48:42.783Z,6.50
2018-12-09T14:51:10.947Z,6.50
2018-12-09T14:53:39.100Z,6.50
2018-12-09T14:56:07.259Z,6.40
2018-12-09T14:58:35.429Z,6.40
2018-12-09T15:01:03.671Z,6.40
2018-12-09T15:03:31.809Z,6.40
2018-12-09T15:06:00.044Z,6.40
2018-12-09T15:08:28.427Z,6.30
2018-12-09T15:10:56.587Z,6.30
2018-12-09T15:13:25.320Z,6.30
2018-12-09T15:15:53.529Z,6.30
2018-12-09T15:18:21.691Z,6.30
2018-12-09T15:20:49.868Z,6.30
2018-12-09T15:23:18.072Z,6.20
2018-12-09T15:25:46.323Z,6.20
2018-12-09T15:28:14.560Z,6.30
2018-12-09T15:30:42.846Z,6.20
2018-12-09T15:33:11.513Z,6.30
2018-12-09T15:35:39.700Z,6.30
2018-12-09T15:38:07.977Z,6.40
2018-12-09T15:40:36.180Z,6.50
2018-12-09T15:43:04.423Z,6.60
2018-12-09T15:45:32.660Z,6.50
2018-12-09T15:48:00.855Z,6.50
2018-12-09T15:50:29.137Z,6.40
2018-12-09T15:52:57.284Z,6.40
2018-12-09T15:55:25.418Z,6.40
2018-12-09T15:57:53.851Z,6.40
2018-12-09T16:00:22.014Z,6.50
2018-12-09T16:02:50.191Z,6.50
2018-12-09T16:05:18.376Z,6.50
2018-12-09T16:07:46.623Z,6.40
2018-12-09T16:10:14.800Z,6.50
2018-12-09T16:12:43.071Z,6.40
2018-12-09T16:15:11.337Z,6.50
2018-12-09T16:17:39.504Z,6.50
2018-12-09T16:20:07.773Z,6.50
2018-12-09T16:22:36.007Z,6.40
2018-12-09T16:25:04.332Z,6.50
2018-12-09T16:27:32.503Z,6.50
2018-12-09T16:30:00.677Z,6.50
2018-12-09T16:32:28.841Z,6.50
2018-12-09T16:34:57.035Z,6.50
2018-12-09T16:37:25.248Z,6.50
2018-12-09T16:39:53.481Z,6.50
2018-12-09T16:42:21.607Z,6.50
2018-12-09T16:44:49.772Z,6.50
2018-12-09T16:47:17.936Z,6.50
2018-12-09T16:49:46.086Z,6.50
2018-12-09T16:52:14.218Z,6.50
2018-12-09T16:54:42.386Z,6.50
2018-12-09T16:57:10.579Z,6.50
2018-12-09T16:59:38.725Z,6.50
2018-12-09T17:02:07.074Z,6.50
2018-12-09T17:04:35.379Z,6.50
2018-12-09T17:07:03.641Z,6.50
2018-12-09T17:09:31.872Z,6.50
2018-12-09T17:12:00.180Z,6.50
2018-12-09T17:14:28.327Z,6.50
2018-12-09T17:16:56.524Z,6.50
2018-12-09T17:19:24.763Z,6.50
2018-12-09T17:21:53.041Z,6.50
2018-12-09T17:24:21.197Z,6.50
2018-12-09T17:26:49.443Z,6.40
2018-12-09T17:29:17.604Z,6.40
2018-12-09T17:31:45.781Z,6.40
2018-12-09T17:34:14.022Z,6.40
2018-12-09T17:36:42.220Z,6.40
2018-12-09T17:39:10.404Z,6.40
2018-12-09T17:41:38.573Z,6.40
2018-12-09T17:44:06.862Z,6.40
2018-12-09T17:46:35.116Z,6.40
2018-12-09T17:49:03.359Z,6.40
2018-12-09T17:51:31.547Z,6.40
2018-12-09T17:53:59.765Z,6.40
2018-12-09T17:56:27.988Z,6.40
2018-12-09T17:58:56.247Z,6.40
2018-12-09T18:01:24.491Z,6.40
2018-12-09T18:03:52.690Z,6.50
2018-12-09T18:06:20.945Z,6.50
2018-12-09T18:08:49.100Z,6.60
2018-12-09T18:11:17.253Z,6.60
2018-12-09T18:13:45.559Z,6.60
2018-12-09T18:16:13.822Z,6.60
2018-12-09T18:18:42.059Z,6.70
2018-12-09T18:21:10.396Z,6.70
2018-12-09T18:23:38.586Z,6.80
2018-12-09T18:26:06.833Z,6.80
2018-12-09T18:28:35.084Z,6.80
2018-12-09T18:31:03.331Z,6.80
2018-12-09T18:33:31.656Z,6.90
2018-12-09T18:36:00.531Z,6.90
2018-12-09T18:38:28.864Z,6.90
2018-12-09T18:40:57.129Z,7.00
2018-12-09T18:43:25.287Z,7.00
2018-12-09T18:45:53.542Z,7.00
2018-12-09T18:48:21.832Z,7.00
2018-12-09T18:50:50.008Z,7.00
2018-12-09T18:53:18.172Z,7.00
2018-12-09T18:55:46.329Z,7.00
2018-12-09T18:58:14.486Z,7.00
2018-12-09T19:00:43.094Z,7.00
2018-12-09T19:03:11.460Z,7.00
2018-12-09T19:05:39.712Z,7.00
2018-12-09T19:08:07.956Z,6.90
2018-12-09T19:10:36.373Z,6.90
2018-12-09T19:13:04.701Z,7.00
2018-12-09T19:15:32.911Z,6.90
2018-12-09T19:18:01.151Z,6.90
2018-12-09T19:20:29.439Z,6.90
2018-12-09T19:22:57.735Z,6.90
2018-12-09T19:25:25.905Z,6.90
2018-12-09T19:27:54.231Z,6.90
2018-12-09T19:30:22.471Z,6.90
2018-12-09T19:32:50.706Z,6.90
2018-12-09T19:35:18.848Z,6.90
2018-12-09T19:37:47.032Z,6.90
2018-12-09T19:40:15.276Z,6.80
2018-12-09T19:42:43.451Z,6.80
2018-12-09T19:45:11.939Z,6.80
2018-12-09T19:47:40.092Z,6.80
2018-12-09T19:50:08.509Z,6.80
2018-12-09T19:52:36.720Z,6.80
2018-12-09T19:55:05.172Z,6.80
2018-12-09T19:57:33.577Z,6.70
2018-12-09T20:00:01.720Z,6.70
2018-12-09T20:02:30.539Z,6.70
2018-12-09T20:04:58.683Z,6.70
2018-12-09T20:07:26.927Z,6.70
2018-12-09T20:09:55.092Z,6.70
2018-12-09T20:12:23.256Z,6.60
2018-12-09T20:14:51.616Z,6.60
2018-12-09T20:17:19.800Z,6.60
2018-12-09T20:19:47.936Z,6.60
2018-12-09T20:22:16.084Z,6.50
2018-12-09T20:24:44.285Z,6.50
2018-12-09T20:27:12.427Z,6.50
2018-12-09T20:29:40.606Z,6.50
2018-12-09T20:32:08.802Z,6.50
2018-12-09T20:34:37.038Z,6.50
2018-12-09T20:37:05.205Z,6.50
2018-12-09T20:39:33.462Z,6.50
2018-12-09T20:42:01.857Z,6.50
2018-12-09T20:44:30.001Z,6.50
2018-12-09T20:46:58.259Z,6.50
2018-12-09T20:49:26.414Z,6.50
2018-12-09T20:51:54.647Z,6.50
2018-12-09T20:54:22.845Z,6.60
2018-12-09T20:56:51.161Z,6.60
2018-12-09T20:59:19.417Z,6.60
2018-12-09T21:01:47.571Z,6.60
2018-12-09T21:04:15.853Z,6.60
2018-12-09T21:06:43.999Z,6.60
2018-12-09T21:09:12.283Z,6.70
2018-12-09T21:11:40.527Z,6.70
2018-12-09T21:14:08.700Z,6.70
2018-12-09T21:16:36.901Z,6.70
2018-12-09T21:19:05.042Z,6.70
2018-12-09T21:21:33.417Z,6.70
2018-12-09T21:24:01.764Z,6.70
2018-12-09T21:26:30.078Z,6.70
2018-12-09T21:28:58.529Z,6.70
2018-12-09T21:31:26.854Z,6.70
2018-12-09T21:33:55.128Z,6.60
2018-12-09T21:36:23.383Z,6.70
2018-12-09T21:38:51.640Z,6.60
2018-12-09T21:41:19.855Z,6.60
2018-12-09T21:43:48.256Z,6.60
2018-12-09T21:46:16.429Z,6.60
2018-12-09T21:48:44.809Z,6.70
2018-12-09T21:51:12.957Z,6.60
2018-12-09T21:53:41.107Z,6.70
2018-12-09T21:56:09.394Z,6.70
2018-12-09T21:58:44.216Z,6.60
2018-12-09T22:01:12.366Z,6.60
2018-12-09T22:03:40.532Z,6.60
2018-12-09T22:06:08.743Z,6.50
2018-12-09T22:08:36.916Z,6.60
2018-12-09T22:11:05.077Z,6.60
2018-12-09T22:13:33.298Z,6.60
2018-12-09T22:16:01.467Z,6.60
2018-12-09T22:18:29.675Z,6.60
2018-12-09T22:20:57.911Z,6.60
2018-12-09T22:23:26.114Z,6.60
2018-12-09T22:25:54.264Z,6.60
2018-12-09T22:28:22.417Z,6.50
2018-12-09T22:30:50.655Z,6.60
2018-12-09T22:33:18.840Z,6.60
2018-12-09T22:35:46.991Z,6.60
2018-12-09T22:38:15.168Z,6.60
2018-12-09T22:40:43.339Z,6.70
2018-12-09T22:43:11.523Z,6.80
2018-12-09T22:45:39.675Z,6.80
2018-12-09T22:48:07.839Z,6.70
2018-12-09T22:50:36.033Z,6.70
2018-12-09T22:53:04.248Z,6.70
2018-12-09T22:55:32.516Z,6.70
2018-12-09T22:58:00.667Z,6.70
2018-12-09T23:00:29.099Z,6.60
2018-12-09T23:03:02.545Z,6.60
2018-12-09T23:05:30.823Z,6.60
2018-12-09T23:07:59.068Z,6.70
2018-12-09T23:10:27.231Z,6.60
2018-12-09T23:12:55.476Z,6.60
2018-12-09T23:15:23.636Z,6.60
2018-12-09T23:17:51.778Z,6.60
2018-12-09T23:20:20.021Z,6.60
2018-12-09T23:22:48.278Z,6.60
2018-12-09T23:25:16.515Z,6.60
2018-12-09T23:27:44.819Z,6.40
2018-12-09T23:30:13.162Z,6.50
2018-12-09T23:32:41.324Z,6.50
2018-12-09T23:35:09.484Z,6.50
2018-12-09T23:37:37.643Z,6.40
2018-12-09T23:40:07.712Z,6.40
2018-12-09T23:42:35.985Z,6.40
2018-12-09T23:45:06.467Z,6.40
2018-12-09T23:47:34.777Z,6.40
2018-12-09T23:50:03.106Z,6.40
2018-12-09T23:52:37.305Z,6.40
2018-12-09T23:55:05.804Z,6.50
2018-12-09T23:57:33.982Z,6.50
